Terminal Aerodrome Forecast
Issued by NWS Sioux Falls, SD

Home | Current Version | Previous Version | Graphics & Text | Print | Product List | Glossary On
Versions: 1 2 3 4 5 6 7 8 9 10 11 12 13 14 15 16
000
FTUS43 KFSD 121725
TAFSUX
TAF
KSUX 121725Z 1218/1318 25007KT P6SM FEW080 SCT200
     FM122300 20007KT P6SM FEW200
     FM130500 23007KT P6SM FEW250 WS020/30040KT
     FM131200 31017G25KT P6SM BKN100=

USA.gov is the U.S. government's official web portal to all federal, state and local government web resources and services.